createdAt,value
2017-04-25T00:00:13.348Z,44.74
2017-04-25T00:01:16.097Z,44.75
2017-04-25T00:02:12.347Z,44.75
2017-04-25T00:03:12.482Z,44.74
2017-04-25T00:04:12.619Z,44.78
2017-04-25T00:05:12.470Z,44.72
2017-04-25T00:06:12.574Z,44.82
2017-04-25T00:07:12.424Z,44.75
2017-04-25T00:08:12.619Z,44.76
2017-04-25T00:09:14.443Z,44.80
2017-04-25T00:10:12.640Z,44.80
2017-04-25T00:11:13.628Z,44.84
2017-04-25T00:12:14.324Z,44.82
2017-04-25T00:13:13.704Z,44.81
2017-04-25T00:14:12.666Z,44.84
2017-04-25T00:15:14.968Z,44.88
2017-04-25T00:16:10.953Z,44.87
2017-04-25T00:17:14.991Z,44.87
2017-04-25T00:18:13.219Z,44.82
2017-04-25T00:19:12.444Z,44.16
2017-04-25T00:20:13.171Z,44.00
2017-04-25T00:21:12.922Z,43.95
2017-04-25T00:22:13.002Z,43.96
2017-04-25T00:23:12.249Z,44.11
2017-04-25T00:24:12.443Z,44.63
2017-04-25T00:25:13.600Z,44.77
2017-04-25T00:26:14.411Z,44.86
2017-04-25T00:27:13.214Z,44.86
2017-04-25T00:28:12.528Z,44.91
2017-04-25T00:29:12.601Z,44.90
2017-04-25T00:30:14.333Z,44.97
2017-04-25T00:31:11.462Z,44.98
2017-04-25T00:32:19.998Z,44.96
2017-04-25T00:33:14.072Z,45.09
2017-04-25T00:34:12.159Z,44.98
2017-04-25T00:35:12.918Z,45.03
2017-04-25T00:36:13.835Z,45.11
2017-04-25T00:37:12.915Z,45.03
2017-04-25T00:38:12.671Z,45.10
2017-04-25T00:39:13.561Z,45.16
2017-04-25T00:40:13.223Z,45.15
2017-04-25T00:41:12.410Z,45.21
2017-04-25T00:42:14.129Z,45.23
2017-04-25T00:43:12.939Z,45.21
2017-04-25T00:44:12.499Z,45.30
2017-04-25T00:45:13.071Z,45.25
2017-04-25T00:46:10.738Z,45.25
2017-04-25T00:47:13.966Z,45.37
2017-04-25T00:48:12.624Z,45.32
2017-04-25T00:49:12.799Z,45.31
2017-04-25T00:50:12.758Z,45.32
2017-04-25T00:51:10.935Z,45.37
2017-04-25T00:52:13.820Z,45.35
2017-04-25T00:53:13.573Z,45.29
2017-04-25T00:54:13.002Z,44.69
2017-04-25T00:55:13.285Z,44.59
2017-04-25T00:56:12.433Z,44.60
2017-04-25T00:57:12.481Z,44.70
2017-04-25T00:58:10.593Z,45.23
2017-04-25T00:59:13.291Z,45.32
2017-04-25T01:00:14.450Z,45.42
2017-04-25T01:01:13.064Z,45.44
2017-04-25T01:02:13.608Z,45.29
2017-04-25T01:03:13.553Z,44.71
2017-04-25T01:04:14.415Z,44.63
2017-04-25T01:05:13.056Z,44.58
2017-04-25T01:06:13.004Z,44.49
2017-04-25T01:07:12.827Z,44.59
2017-04-25T01:08:13.610Z,44.53
2017-04-25T01:09:13.721Z,44.48
2017-04-25T01:10:12.791Z,44.53
2017-04-25T01:11:11.038Z,44.48
2017-04-25T01:12:12.372Z,44.67
2017-04-25T01:13:13.371Z,45.22
2017-04-25T01:14:14.080Z,45.35
2017-04-25T01:15:13.529Z,45.47
2017-04-25T01:16:12.898Z,45.52
2017-04-25T01:17:14.700Z,45.57
2017-04-25T01:18:12.795Z,45.65
2017-04-25T01:19:13.541Z,45.61
2017-04-25T01:20:15.058Z,45.65
2017-04-25T01:21:12.138Z,45.76
2017-04-25T01:22:12.360Z,45.67
2017-04-25T01:23:13.021Z,45.63
2017-04-25T01:24:12.800Z,45.66
2017-04-25T01:25:14.438Z,45.73
2017-04-25T01:26:13.779Z,45.61
2017-04-25T01:27:13.378Z,45.61
2017-04-25T01:28:13.117Z,45.70
2017-04-25T01:29:12.282Z,45.75
2017-04-25T01:30:12.262Z,45.71
2017-04-25T01:31:12.275Z,45.77
2017-04-25T01:32:13.841Z,45.82
2017-04-25T01:33:14.012Z,45.73
2017-04-25T01:34:12.755Z,45.74
2017-04-25T01:35:11.886Z,45.66
2017-04-25T01:36:14.166Z,44.99
2017-04-25T01:37:13.636Z,44.84
2017-04-25T01:38:13.548Z,45.50
2017-04-25T01:39:14.142Z,45.68
2017-04-25T01:40:13.274Z,45.64
2017-04-25T01:41:14.992Z,45.69
2017-04-25T01:42:10.798Z,45.72
2017-04-25T01:43:15.079Z,45.75
2017-04-25T01:44:13.114Z,45.81
2017-04-25T01:45:12.955Z,45.76
2017-04-25T01:46:14.679Z,45.79
2017-04-25T01:47:14.772Z,45.81
2017-04-25T01:48:11.911Z,45.78
2017-04-25T01:49:14.070Z,45.79
2017-04-25T01:50:14.134Z,45.83
2017-04-25T01:51:13.561Z,45.73
2017-04-25T01:52:14.428Z,45.80
2017-04-25T01:53:13.120Z,45.84
2017-04-25T01:54:12.940Z,45.84
2017-04-25T01:55:12.904Z,45.85
2017-04-25T01:56:13.128Z,45.84
2017-04-25T01:57:12.228Z,45.94
2017-04-25T01:58:12.408Z,45.92
2017-04-25T01:59:13.221Z,45.90
2017-04-25T02:00:12.278Z,45.87
2017-04-25T02:01:12.551Z,45.94
2017-04-25T02:02:14.298Z,45.87
2017-04-25T02:03:12.578Z,45.90
2017-04-25T02:04:13.704Z,45.90
2017-04-25T02:05:13.778Z,45.91
2017-04-25T02:06:13.350Z,45.98
2017-04-25T02:07:11.557Z,45.91
2017-04-25T02:08:13.189Z,45.90
2017-04-25T02:09:12.784Z,45.93
2017-04-25T02:10:13.617Z,45.94
2017-04-25T02:11:13.449Z,46.08
2017-04-25T02:12:13.316Z,45.96
2017-04-25T02:13:13.978Z,45.98
2017-04-25T02:14:10.992Z,45.96
2017-04-25T02:15:12.951Z,45.40
2017-04-25T02:16:12.031Z,45.20
2017-04-25T02:17:12.413Z,45.77
2017-04-25T02:18:12.524Z,45.99
2017-04-25T02:19:13.712Z,46.06
2017-04-25T02:20:12.973Z,46.12
2017-04-25T02:21:13.754Z,46.04
2017-04-25T02:22:14.364Z,46.13
2017-04-25T02:23:11.158Z,46.19
2017-04-25T02:24:13.150Z,45.40
2017-04-25T02:25:12.111Z,45.27
2017-04-25T02:26:12.732Z,45.82
2017-04-25T02:27:10.409Z,45.99
2017-04-25T02:28:12.607Z,46.08
2017-04-25T02:29:13.437Z,46.15
2017-04-25T02:30:11.082Z,46.15
2017-04-25T02:31:13.628Z,46.08
2017-04-25T02:32:12.796Z,46.16
2017-04-25T02:33:13.725Z,46.15
2017-04-25T02:34:12.841Z,46.12
2017-04-25T02:35:13.890Z,46.18
2017-04-25T02:36:13.056Z,46.16
2017-04-25T02:37:13.610Z,46.13
2017-04-25T02:38:13.591Z,45.58
2017-04-25T02:39:13.536Z,45.39
2017-04-25T02:40:13.084Z,46.07
2017-04-25T02:41:10.509Z,46.22
2017-04-25T02:42:13.110Z,46.22
2017-04-25T02:43:12.259Z,46.31
2017-04-25T02:44:12.995Z,46.24
2017-04-25T02:45:12.757Z,46.25
2017-04-25T02:46:12.760Z,46.29
2017-04-25T02:47:14.428Z,46.26
2017-04-25T02:48:12.439Z,46.22
2017-04-25T02:49:13.951Z,46.32
2017-04-25T02:50:13.156Z,46.36
2017-04-25T02:51:12.775Z,46.22
2017-04-25T02:52:14.473Z,46.30
2017-04-25T02:53:13.211Z,46.23
2017-04-25T02:54:12.978Z,46.35
2017-04-25T02:55:11.880Z,46.37
2017-04-25T02:56:12.558Z,46.34
2017-04-25T02:57:12.632Z,46.26
2017-04-25T02:58:13.187Z,46.31
2017-04-25T02:59:12.969Z,46.31
2017-04-25T03:00:12.914Z,46.41
2017-04-25T03:01:13.904Z,46.35
2017-04-25T03:02:12.973Z,46.36
2017-04-25T03:03:12.154Z,46.42
2017-04-25T03:04:13.675Z,46.52
2017-04-25T03:05:12.779Z,46.46
2017-04-25T03:06:13.729Z,46.47
2017-04-25T03:07:12.791Z,46.47
2017-04-25T03:08:12.871Z,46.40
2017-04-25T03:09:11.676Z,46.26
2017-04-25T03:10:12.973Z,45.89
2017-04-25T03:11:15.238Z,46.33
2017-04-25T03:12:12.543Z,46.36
2017-04-25T03:13:15.113Z,46.34
2017-04-25T03:14:12.725Z,46.39
2017-04-25T03:15:13.801Z,46.37
2017-04-25T03:16:13.513Z,46.40
2017-04-25T03:17:14.317Z,46.40
2017-04-25T03:18:13.201Z,46.40
2017-04-25T03:19:13.071Z,46.46
2017-04-25T03:20:13.387Z,46.45
2017-04-25T03:21:13.346Z,46.44
2017-04-25T03:22:14.293Z,46.47
2017-04-25T03:23:13.246Z,46.49
2017-04-25T03:24:13.572Z,46.58
2017-04-25T03:25:13.071Z,46.40
2017-04-25T03:26:12.302Z,46.46
2017-04-25T03:27:13.431Z,46.46
2017-04-25T03:28:13.045Z,46.49
2017-04-25T03:29:13.079Z,46.69
2017-04-25T03:30:13.920Z,46.53
2017-04-25T03:31:12.982Z,46.49
2017-04-25T03:32:12.236Z,46.57
2017-04-25T03:33:12.766Z,46.50
2017-04-25T03:34:13.845Z,46.49
2017-04-25T03:35:12.964Z,46.56
2017-04-25T03:36:11.952Z,46.57
2017-04-25T03:37:10.975Z,46.60
2017-04-25T03:38:11.978Z,46.55
2017-04-25T03:39:12.445Z,46.63
2017-04-25T03:40:12.464Z,46.58
2017-04-25T03:41:15.241Z,46.62
2017-04-25T03:42:13.456Z,46.62
2017-04-25T03:43:12.631Z,46.65
2017-04-25T03:44:13.556Z,46.63
2017-04-25T03:45:14.844Z,46.65
2017-04-25T03:46:13.471Z,46.62
2017-04-25T03:47:14.392Z,46.57
2017-04-25T03:48:12.595Z,46.60
2017-04-25T03:49:14.351Z,46.66
2017-04-25T03:50:12.266Z,46.71
2017-04-25T03:51:13.021Z,46.63
2017-04-25T03:52:12.720Z,46.75
2017-04-25T03:53:12.963Z,46.68
2017-04-25T03:54:12.623Z,46.74
2017-04-25T03:55:13.615Z,46.70
2017-04-25T03:56:15.241Z,46.73
2017-04-25T03:57:11.435Z,46.69
2017-04-25T03:58:12.593Z,46.79
2017-04-25T03:59:12.627Z,46.83
2017-04-25T04:00:12.951Z,46.72
2017-04-25T04:01:12.581Z,46.75
2017-04-25T04:02:13.220Z,46.83
2017-04-25T04:03:12.310Z,46.88
2017-04-25T04:04:13.777Z,46.81
2017-04-25T04:05:13.844Z,46.95
2017-04-25T04:06:11.615Z,46.88
2017-04-25T04:07:12.492Z,46.83
2017-04-25T04:08:13.130Z,46.86
2017-04-25T04:09:12.248Z,46.84
2017-04-25T04:10:12.427Z,46.84
2017-04-25T04:11:13.838Z,47.00
2017-04-25T04:12:12.889Z,46.87
2017-04-25T04:13:10.303Z,46.95
2017-04-25T04:14:12.679Z,46.92
2017-04-25T04:15:12.804Z,46.87
2017-04-25T04:16:13.868Z,46.95
2017-04-25T04:17:14.080Z,46.85
2017-04-25T04:18:12.598Z,46.86
2017-04-25T04:19:12.672Z,46.81
2017-04-25T04:20:13.449Z,46.93
2017-04-25T04:21:12.564Z,46.88
2017-04-25T04:22:12.473Z,46.97
2017-04-25T04:23:12.689Z,46.87
2017-04-25T04:24:12.873Z,46.99
2017-04-25T04:25:15.575Z,46.98
2017-04-25T04:26:14.216Z,46.99
2017-04-25T04:27:12.347Z,46.87
2017-04-25T04:28:12.426Z,46.96
2017-04-25T04:29:13.569Z,46.98
2017-04-25T04:30:12.856Z,46.88
2017-04-25T04:31:13.023Z,46.99
2017-04-25T04:32:13.449Z,46.95
2017-04-25T04:33:12.453Z,46.97
2017-04-25T04:34:13.938Z,46.99
2017-04-25T04:35:12.182Z,47.01
2017-04-25T04:36:12.337Z,46.94
2017-04-25T04:37:13.644Z,46.93
2017-04-25T04:38:13.208Z,46.98
2017-04-25T04:39:12.251Z,46.99
2017-04-25T04:40:13.656Z,47.08
2017-04-25T04:41:12.730Z,47.07
2017-04-25T04:42:13.374Z,46.99
2017-04-25T04:43:13.314Z,47.03
2017-04-25T04:44:11.187Z,46.95
2017-04-25T04:45:13.048Z,47.05
2017-04-25T04:46:18.048Z,47.09
2017-04-25T04:47:12.256Z,47.00
2017-04-25T04:48:14.184Z,47.08
2017-04-25T04:49:12.755Z,46.98
2017-04-25T04:50:14.407Z,46.99
2017-04-25T04:51:12.479Z,46.97
2017-04-25T04:52:13.367Z,47.16
2017-04-25T04:53:11.326Z,47.03
2017-04-25T04:54:14.068Z,46.99
2017-04-25T04:55:12.236Z,47.14
2017-04-25T04:56:12.431Z,46.99
2017-04-25T04:57:13.129Z,47.10
2017-04-25T04:58:12.916Z,47.04
2017-04-25T04:59:11.273Z,47.06
2017-04-25T05:00:13.000Z,47.05
2017-04-25T05:01:12.683Z,47.13
2017-04-25T05:02:12.831Z,47.02
2017-04-25T05:03:13.565Z,47.05
2017-04-25T05:04:11.479Z,47.10
2017-04-25T05:05:12.776Z,47.00
2017-04-25T05:06:12.015Z,46.99
2017-04-25T05:07:12.583Z,47.13
2017-04-25T05:08:13.178Z,47.10
2017-04-25T05:09:12.972Z,47.07
2017-04-25T05:10:11.197Z,46.96
2017-04-25T05:11:13.231Z,46.38
2017-04-25T05:12:12.982Z,46.18
2017-04-25T05:13:11.955Z,46.17
2017-04-25T05:14:12.805Z,46.05
2017-04-25T05:15:13.649Z,46.07
2017-04-25T05:16:13.364Z,46.04
2017-04-25T05:17:13.197Z,46.00
2017-04-25T05:18:12.507Z,46.06
2017-04-25T05:19:12.766Z,46.11
2017-04-25T05:20:14.386Z,46.10
2017-04-25T05:21:12.561Z,45.99
2017-04-25T05:22:13.850Z,46.19
2017-04-25T05:23:13.558Z,46.75
2017-04-25T05:24:12.737Z,46.92
2017-04-25T05:25:12.818Z,46.97
2017-04-25T05:26:14.679Z,47.03
2017-04-25T05:27:13.189Z,47.10
2017-04-25T05:28:12.816Z,47.12
2017-04-25T05:29:14.136Z,47.12
2017-04-25T05:30:12.414Z,47.06
2017-04-25T05:31:12.974Z,47.10
2017-04-25T05:32:12.074Z,47.14
2017-04-25T05:33:12.632Z,47.14
2017-04-25T05:34:12.815Z,47.13
2017-04-25T05:35:14.371Z,47.17
2017-04-25T05:36:14.172Z,47.16
2017-04-25T05:37:12.063Z,47.15
2017-04-25T05:38:12.781Z,47.18
2017-04-25T05:39:13.161Z,47.15
2017-04-25T05:40:12.961Z,47.26
2017-04-25T05:41:11.171Z,47.23
2017-04-25T05:42:11.188Z,47.19
2017-04-25T05:43:12.890Z,47.19
2017-04-25T05:44:13.651Z,47.30
2017-04-25T05:45:14.236Z,47.17
2017-04-25T05:46:12.526Z,47.16
2017-04-25T05:47:13.264Z,47.19
2017-04-25T05:48:12.485Z,47.19
2017-04-25T05:49:12.992Z,47.25
2017-04-25T05:50:11.958Z,47.22
2017-04-25T05:51:13.767Z,47.29
2017-04-25T05:52:13.423Z,47.19
2017-04-25T05:53:12.801Z,47.36
2017-04-25T05:54:13.414Z,47.18
2017-04-25T05:55:12.423Z,46.69
2017-04-25T05:56:11.499Z,47.01
2017-04-25T05:57:12.576Z,47.11
2017-04-25T05:58:12.881Z,47.21
2017-04-25T05:59:13.235Z,47.20
2017-04-25T06:00:12.318Z,47.16
2017-04-25T06:01:12.942Z,47.16
2017-04-25T06:02:12.688Z,47.22
2017-04-25T06:03:13.485Z,47.20
2017-04-25T06:04:12.639Z,47.17
2017-04-25T06:05:12.782Z,47.27
2017-04-25T06:06:13.050Z,47.32
2017-04-25T06:07:13.221Z,47.25
2017-04-25T06:08:12.953Z,47.19
2017-04-25T06:09:14.824Z,47.27
2017-04-25T06:10:12.870Z,47.29
2017-04-25T06:11:12.764Z,47.25
2017-04-25T06:12:12.797Z,47.29
2017-04-25T06:13:13.030Z,47.28
2017-04-25T06:14:12.581Z,47.22
2017-04-25T06:15:13.192Z,47.25
2017-04-25T06:16:12.872Z,47.28
2017-04-25T06:17:13.459Z,47.29
2017-04-25T06:18:13.831Z,47.27
2017-04-25T06:19:13.942Z,47.28
2017-04-25T06:20:12.073Z,47.26
2017-04-25T06:21:13.177Z,47.33
2017-04-25T06:22:12.407Z,47.29
2017-04-25T06:23:12.966Z,47.30
2017-04-25T06:24:13.998Z,47.30
2017-04-25T06:25:12.216Z,47.29
2017-04-25T06:26:12.412Z,47.30
2017-04-25T06:27:12.449Z,47.38
2017-04-25T06:28:13.360Z,47.38
2017-04-25T06:29:12.652Z,47.37
2017-04-25T06:30:12.609Z,47.41
2017-04-25T06:31:12.600Z,47.42
2017-04-25T06:32:12.628Z,47.38
2017-04-25T06:33:13.382Z,47.38
2017-04-25T06:34:13.410Z,47.37
2017-04-25T06:35:12.432Z,47.35
2017-04-25T06:36:13.171Z,47.35
2017-04-25T06:37:12.353Z,47.37
2017-04-25T06:38:13.217Z,47.42
2017-04-25T06:39:13.002Z,47.36
2017-04-25T06:40:10.771Z,47.49
2017-04-25T06:41:11.961Z,47.47
2017-04-25T06:42:12.426Z,47.42
2017-04-25T06:43:13.006Z,47.39
2017-04-25T06:44:12.135Z,47.40
2017-04-25T06:45:12.831Z,47.55
2017-04-25T06:46:13.643Z,47.03
2017-04-25T06:47:13.491Z,47.29
2017-04-25T06:48:12.628Z,46.67
2017-04-25T06:49:13.231Z,46.80
2017-04-25T06:50:11.330Z,47.36
2017-04-25T06:51:12.566Z,47.73
2017-04-25T06:52:11.461Z,47.54
2017-04-25T06:53:11.210Z,47.62
2017-04-25T06:54:13.011Z,47.50
2017-04-25T06:55:13.848Z,47.56
2017-04-25T06:56:13.203Z,47.75
2017-04-25T06:57:13.287Z,47.59
2017-04-25T06:58:13.813Z,46.88
2017-04-25T06:59:11.844Z,46.74
2017-04-25T07:00:12.037Z,46.74
2017-04-25T07:01:12.226Z,46.62
2017-04-25T07:02:12.860Z,46.62
2017-04-25T07:03:13.470Z,46.53
2017-04-25T07:04:13.238Z,46.54
2017-04-25T07:05:12.239Z,46.52
2017-04-25T07:06:12.990Z,46.55
2017-04-25T07:07:12.092Z,47.27
2017-04-25T07:08:12.220Z,47.40
2017-04-25T07:09:11.333Z,47.46
2017-04-25T07:10:13.520Z,47.49
2017-04-25T07:11:13.692Z,47.53
2017-04-25T07:12:13.186Z,47.56
2017-04-25T07:13:13.108Z,47.52
2017-04-25T07:14:12.822Z,47.50
2017-04-25T07:15:14.503Z,47.47
2017-04-25T07:16:13.942Z,47.52
2017-04-25T07:17:13.852Z,47.50
2017-04-25T07:18:14.381Z,47.53
2017-04-25T07:19:13.216Z,47.46
2017-04-25T07:20:12.814Z,47.51
2017-04-25T07:21:13.261Z,47.51
2017-04-25T07:22:12.380Z,47.53
2017-04-25T07:23:13.233Z,47.48
2017-04-25T07:24:12.879Z,47.48
2017-04-25T07:25:13.466Z,47.47
2017-04-25T07:26:11.472Z,47.49
2017-04-25T07:27:12.565Z,47.51
2017-04-25T07:28:12.970Z,47.47
2017-04-25T07:29:12.155Z,47.50
2017-04-25T07:30:15.022Z,47.46
2017-04-25T07:31:12.574Z,47.48
2017-04-25T07:32:15.557Z,47.44
2017-04-25T07:33:13.353Z,47.45
2017-04-25T07:34:12.481Z,47.44
2017-04-25T07:35:14.689Z,47.44
2017-04-25T07:36:12.809Z,47.44
2017-04-25T07:37:12.818Z,47.45
2017-04-25T07:38:13.582Z,47.44
2017-04-25T07:39:12.616Z,47.44
2017-04-25T07:40:13.461Z,47.44
2017-04-25T07:41:14.392Z,47.40
2017-04-25T07:42:13.034Z,47.39
2017-04-25T07:43:11.840Z,47.36
2017-04-25T07:44:12.958Z,47.37
2017-04-25T07:45:14.678Z,47.39
2017-04-25T07:46:13.389Z,47.38
2017-04-25T07:47:12.467Z,47.34
2017-04-25T07:48:13.341Z,47.34
2017-04-25T07:49:13.025Z,47.32
2017-04-25T07:50:12.940Z,47.31
2017-04-25T07:51:12.000Z,47.31
2017-04-25T07:52:12.622Z,47.32
2017-04-25T07:53:13.223Z,47.27
2017-04-25T07:54:13.055Z,47.29
2017-04-25T07:55:12.933Z,47.27
2017-04-25T07:56:12.885Z,47.25
2017-04-25T07:57:13.013Z,47.25
2017-04-25T07:58:12.413Z,47.21
2017-04-25T07:59:12.401Z,47.21
2017-04-25T08:00:11.342Z,47.21
2017-04-25T08:01:14.126Z,47.20
2017-04-25T08:02:10.566Z,47.23
2017-04-25T08:03:14.331Z,47.20
2017-04-25T08:04:12.941Z,47.21
2017-04-25T08:05:10.970Z,47.13
2017-04-25T08:06:13.156Z,46.50
2017-04-25T08:07:12.114Z,46.42
2017-04-25T08:08:12.351Z,46.37
2017-04-25T08:09:12.381Z,46.36
2017-04-25T08:10:12.975Z,47.00
2017-04-25T08:11:10.714Z,47.19
2017-04-25T08:12:12.993Z,46.60
2017-04-25T08:13:12.793Z,47.45
2017-04-25T08:14:12.987Z,47.80
2017-04-25T08:15:13.438Z,48.44
2017-04-25T08:16:12.992Z,48.90
2017-04-25T08:17:10.816Z,49.33
2017-04-25T08:18:14.236Z,51.15
2017-04-25T08:19:12.424Z,50.21
2017-04-25T08:20:13.898Z,49.99
2017-04-25T08:21:13.206Z,49.51
2017-04-25T08:22:12.259Z,49.89
2017-04-25T08:23:12.435Z,49.68
2017-04-25T08:24:14.250Z,50.09
2017-04-25T08:25:12.459Z,49.80
2017-04-25T08:26:14.250Z,49.61
2017-04-25T08:27:12.949Z,49.89
2017-04-25T08:28:12.609Z,49.84
2017-04-25T08:29:12.819Z,49.60
2017-04-25T08:30:13.608Z,49.62
2017-04-25T08:31:14.651Z,49.62
2017-04-25T08:32:13.448Z,49.56
2017-04-25T08:33:13.508Z,49.81
2017-04-25T08:34:13.480Z,49.42
2017-04-25T08:35:12.674Z,49.38
2017-04-25T08:36:14.250Z,49.15
2017-04-25T08:37:13.095Z,49.13
2017-04-25T08:38:12.968Z,50.38
2017-04-25T08:39:13.399Z,49.79
2017-04-25T08:40:12.588Z,49.40
2017-04-25T08:41:14.511Z,49.33
2017-04-25T08:42:12.690Z,49.20
2017-04-25T08:43:13.668Z,49.40
2017-04-25T08:44:14.195Z,49.05
2017-04-25T08:45:10.647Z,49.18
2017-04-25T08:46:13.223Z,49.37
2017-04-25T08:47:13.472Z,49.57
2017-04-25T08:48:12.514Z,49.74
2017-04-25T08:49:12.678Z,49.65
2017-04-25T08:50:12.791Z,49.43
2017-04-25T08:51:14.457Z,49.46
2017-04-25T08:52:12.959Z,49.89
2017-04-25T08:53:12.621Z,49.66
2017-04-25T08:54:12.576Z,49.45
2017-04-25T08:55:12.685Z,50.06
2017-04-25T08:56:13.524Z,49.89
2017-04-25T08:57:13.399Z,49.90
2017-04-25T08:58:12.639Z,49.68
2017-04-25T08:59:12.694Z,49.58
2017-04-25T09:00:15.304Z,49.68
2017-04-25T09:01:12.589Z,49.59
2017-04-25T09:02:16.115Z,49.66
2017-04-25T09:03:12.908Z,49.46
2017-04-25T09:04:13.878Z,49.44
2017-04-25T09:05:12.840Z,49.32
2017-04-25T09:06:12.928Z,49.37
2017-04-25T09:07:14.968Z,49.28
2017-04-25T09:08:12.058Z,49.36
2017-04-25T09:09:12.737Z,49.26
2017-04-25T09:10:12.043Z,49.30
2017-04-25T09:11:13.670Z,49.30
2017-04-25T09:12:11.397Z,49.28
2017-04-25T09:13:13.783Z,49.21
2017-04-25T09:14:12.777Z,49.18
2017-04-25T09:15:12.931Z,49.15
2017-04-25T09:16:12.961Z,49.10
2017-04-25T09:17:13.016Z,49.01
2017-04-25T09:18:12.498Z,48.99
2017-04-25T09:19:14.341Z,49.04
2017-04-25T09:20:12.408Z,49.07
2017-04-25T09:21:13.696Z,48.89
2017-04-25T09:22:12.883Z,49.01
2017-04-25T09:23:12.012Z,48.99
2017-04-25T09:24:11.068Z,48.99
2017-04-25T09:25:13.854Z,48.59
2017-04-25T09:26:12.839Z,49.37
2017-04-25T09:27:13.298Z,49.31
2017-04-25T09:28:12.981Z,49.26
2017-04-25T09:29:12.623Z,49.12
2017-04-25T09:30:19.690Z,49.06
2017-04-25T09:31:14.434Z,48.94
2017-04-25T09:32:14.364Z,48.96
2017-04-25T09:33:12.990Z,49.07
2017-04-25T09:34:15.149Z,48.89
2017-04-25T09:35:12.608Z,48.92
2017-04-25T09:36:13.538Z,48.90
2017-04-25T09:37:13.253Z,49.02
2017-04-25T09:38:16.119Z,48.93
2017-04-25T09:39:12.784Z,48.89
2017-04-25T09:40:14.405Z,48.85
2017-04-25T09:41:13.029Z,49.41
2017-04-25T09:42:12.678Z,48.83
2017-04-25T09:43:10.937Z,48.88
2017-04-25T09:44:10.331Z,48.20
2017-04-25T09:45:13.339Z,47.87
2017-04-25T09:46:12.842Z,47.77
2017-04-25T09:47:12.996Z,48.46
2017-04-25T09:48:12.083Z,48.58
2017-04-25T09:49:12.279Z,48.62
2017-04-25T09:50:14.056Z,48.67
2017-04-25T09:51:12.690Z,48.68
2017-04-25T09:52:13.831Z,48.68
2017-04-25T09:53:13.430Z,48.66
2017-04-25T09:54:13.257Z,48.70
2017-04-25T09:55:11.293Z,48.69
2017-04-25T09:56:13.128Z,48.64
2017-04-25T09:57:12.628Z,48.79
2017-04-25T09:58:13.282Z,48.72
2017-04-25T09:59:11.151Z,48.65
2017-04-25T10:00:12.413Z,48.72
2017-04-25T10:01:12.593Z,48.65
2017-04-25T10:02:13.159Z,48.61
2017-04-25T10:03:11.499Z,48.58
2017-04-25T10:04:13.095Z,47.82
2017-04-25T10:05:12.661Z,47.93
2017-04-25T10:06:13.689Z,48.34
2017-04-25T10:07:12.632Z,48.73
2017-04-25T10:08:12.849Z,48.57
2017-04-25T10:09:13.700Z,48.65
2017-04-25T10:10:13.185Z,48.67
2017-04-25T10:11:11.137Z,48.54
2017-04-25T10:12:11.270Z,47.90
2017-04-25T10:13:12.952Z,47.71
2017-04-25T10:14:12.419Z,47.66
2017-04-25T10:15:14.035Z,47.66
2017-04-25T10:16:12.750Z,48.29
2017-04-25T10:17:13.535Z,48.33
2017-04-25T10:18:12.601Z,47.73
2017-04-25T10:19:15.190Z,47.67
2017-04-25T10:20:12.736Z,47.59
2017-04-25T10:21:14.897Z,47.88
2017-04-25T10:22:13.198Z,48.24
2017-04-25T10:23:12.398Z,48.39
2017-04-25T10:24:14.088Z,48.45
2017-04-25T10:25:09.554Z,48.49
2017-04-25T10:26:12.968Z,48.53
2017-04-25T10:27:13.867Z,48.54
2017-04-25T10:28:13.167Z,48.51
2017-04-25T10:29:12.233Z,48.57
2017-04-25T10:30:12.248Z,48.55
2017-04-25T10:31:09.459Z,48.51
2017-04-25T10:32:13.162Z,48.52
2017-04-25T10:33:12.510Z,48.42
2017-04-25T10:34:14.087Z,48.35
2017-04-25T10:35:12.798Z,48.28
2017-04-25T10:36:13.004Z,48.32
2017-04-25T10:37:12.019Z,48.39
2017-04-25T10:38:12.748Z,48.53
2017-04-25T10:39:13.770Z,48.54
2017-04-25T10:40:12.897Z,48.34
2017-04-25T10:41:13.465Z,48.24
2017-04-25T10:42:12.814Z,47.93
2017-04-25T10:43:13.114Z,48.04
2017-04-25T10:44:13.060Z,48.00
2017-04-25T10:45:12.749Z,48.05
2017-04-25T10:46:13.249Z,47.43
2017-04-25T10:47:13.319Z,47.11
2017-04-25T10:48:12.462Z,47.02
2017-04-25T10:49:12.639Z,47.75
2017-04-25T10:50:12.603Z,47.80
2017-04-25T10:51:13.058Z,47.84
2017-04-25T10:52:12.235Z,47.90
2017-04-25T10:53:13.107Z,47.96
2017-04-25T10:54:12.255Z,47.95
2017-04-25T10:55:12.422Z,47.93
2017-04-25T10:56:12.561Z,47.87
2017-04-25T10:57:13.167Z,47.81
2017-04-25T10:58:12.854Z,47.56
2017-04-25T10:59:13.721Z,47.74
2017-04-25T11:00:14.267Z,47.70
2017-04-25T11:01:12.946Z,47.72
2017-04-25T11:02:12.436Z,47.76
2017-04-25T11:03:14.204Z,47.71
2017-04-25T11:04:14.133Z,47.78
2017-04-25T11:05:13.710Z,47.79
2017-04-25T11:06:12.070Z,47.82
2017-04-25T11:07:13.217Z,47.81
2017-04-25T11:08:12.430Z,47.85
2017-04-25T11:09:14.067Z,47.85
2017-04-25T11:10:11.174Z,47.86
2017-04-25T11:11:13.975Z,47.05
2017-04-25T11:12:12.675Z,46.91
2017-04-25T11:13:12.753Z,46.71
2017-04-25T11:14:13.125Z,46.66
2017-04-25T11:15:12.340Z,46.56
2017-04-25T11:16:12.617Z,46.54
2017-04-25T11:17:10.383Z,46.67
2017-04-25T11:18:13.193Z,46.73
2017-04-25T11:19:13.252Z,46.67
2017-04-25T11:20:13.333Z,46.72
2017-04-25T11:21:12.783Z,46.66
2017-04-25T11:22:14.023Z,46.79
2017-04-25T11:23:13.920Z,46.81
2017-04-25T11:24:12.848Z,46.86
2017-04-25T11:25:13.543Z,47.06
2017-04-25T11:26:13.424Z,47.62
2017-04-25T11:27:11.176Z,47.79
2017-04-25T11:28:12.956Z,47.89
2017-04-25T11:29:13.652Z,47.94
2017-04-25T11:30:13.254Z,47.99
2017-04-25T11:31:14.140Z,48.03
2017-04-25T11:32:13.935Z,48.05
2017-04-25T11:33:14.748Z,48.08
2017-04-25T11:34:11.544Z,48.08
2017-04-25T11:35:12.949Z,48.06
2017-04-25T11:36:12.566Z,48.04
2017-04-25T11:37:14.373Z,48.04
2017-04-25T11:38:13.030Z,48.11
2017-04-25T11:39:12.572Z,48.12
2017-04-25T11:40:11.764Z,47.97
2017-04-25T11:41:12.933Z,47.51
2017-04-25T11:42:12.110Z,47.95
2017-04-25T11:43:11.908Z,48.06
2017-04-25T11:44:13.652Z,48.09
2017-04-25T11:45:12.605Z,48.07
2017-04-25T11:46:12.608Z,48.13
2017-04-25T11:47:14.082Z,48.17
2017-04-25T11:48:12.854Z,48.16
2017-04-25T11:49:16.366Z,48.17
2017-04-25T11:50:12.434Z,48.16
2017-04-25T11:51:13.042Z,48.14
2017-04-25T11:52:12.724Z,48.14
2017-04-25T11:53:13.653Z,48.21
2017-04-25T11:54:12.695Z,48.17
2017-04-25T11:55:13.344Z,48.17
2017-04-25T11:56:15.114Z,48.14
2017-04-25T11:57:12.602Z,48.17
2017-04-25T11:58:12.665Z,48.22
2017-04-25T11:59:12.865Z,48.16
2017-04-25T12:00:12.881Z,48.13
2017-04-25T12:01:13.102Z,48.15
2017-04-25T12:02:12.232Z,48.14
2017-04-25T12:03:12.765Z,48.16
2017-04-25T12:04:13.415Z,48.14
2017-04-25T12:05:13.300Z,48.18
2017-04-25T12:06:12.670Z,48.13
2017-04-25T12:07:13.519Z,48.14
2017-04-25T12:08:12.981Z,48.12
2017-04-25T12:09:12.817Z,48.11
2017-04-25T12:10:12.985Z,48.07
2017-04-25T12:11:14.078Z,48.09
2017-04-25T12:12:12.159Z,48.07
2017-04-25T12:13:13.888Z,48.08
2017-04-25T12:14:13.679Z,48.08
2017-04-25T12:15:14.396Z,48.05
2017-04-25T12:16:12.382Z,48.05
2017-04-25T12:17:13.219Z,48.06
2017-04-25T12:18:12.402Z,48.05
2017-04-25T12:19:12.539Z,48.04
2017-04-25T12:20:13.314Z,48.04
2017-04-25T12:21:12.420Z,48.04
2017-04-25T12:22:13.012Z,48.06
2017-04-25T12:23:12.664Z,48.08
2017-04-25T12:24:13.188Z,48.07
2017-04-25T12:25:13.207Z,48.08
2017-04-25T12:26:10.853Z,48.08
2017-04-25T12:27:12.955Z,48.07
2017-04-25T12:28:13.291Z,48.04
2017-04-25T12:29:12.433Z,48.06
2017-04-25T12:30:15.298Z,48.07
2017-04-25T12:31:12.515Z,48.03
2017-04-25T12:32:15.049Z,48.03
2017-04-25T12:33:13.644Z,48.03
2017-04-25T12:34:15.009Z,48.01
2017-04-25T12:35:14.833Z,48.01
2017-04-25T12:36:16.075Z,48.01
2017-04-25T12:37:14.713Z,47.99
2017-04-25T12:38:15.373Z,48.02
2017-04-25T12:39:10.819Z,48.02
2017-04-25T12:40:16.103Z,47.24
2017-04-25T12:41:14.943Z,47.10
2017-04-25T12:42:14.720Z,47.78
2017-04-25T12:43:13.439Z,47.89
2017-04-25T12:44:13.438Z,47.94
2017-04-25T12:45:12.605Z,47.98
2017-04-25T12:46:14.271Z,48.00
2017-04-25T12:47:13.602Z,48.01
2017-04-25T12:48:14.146Z,48.01
2017-04-25T12:49:12.610Z,48.02
2017-04-25T12:50:13.768Z,48.05
2017-04-25T12:51:14.516Z,48.07
2017-04-25T12:52:15.761Z,48.06